Time;durP1;ratioP1;P1;durP2;ratioP2;P2;SDS_P1;SDS_P2;PMS_P1;PMS_P2;Temp;Humidity;BMP_temperature;BMP_pressure;BME280_temperature;BME280_humidity;BME280_pressure;Samples;Min_cycle;Max_cycle;Signal;HPM_P1;HPM_P2
2022/10/04 00:00:42;;;;;;;0.70;0.60;;;13.30;99.90;;;;;;5072369;28;20415;-69
2022/10/04 00:03:35;;;;;;;3.03;0.60;;;13.30;99.90;;;;;;5073599;28;20575;-69
2022/10/04 00:06:26;;;;;;;0.40;0.40;;;13.30;99.90;;;;;;5073569;28;20447;-70
2022/10/04 00:09:17;;;;;;;0.50;0.50;;;13.30;99.90;;;;;;5072512;28;20938;-70
2022/10/04 00:12:06;;;;;;;0.40;0.40;;;13.30;99.90;;;;;;5073272;28;20434;-70
2022/10/04 00:14:57;;;;;;;0.40;0.40;;;13.30;99.90;;;;;;5072390;28;20433;-70
2022/10/04 00:18:01;;;;;;;0.43;0.43;;;13.30;99.90;;;;;;5111979;22;20488;-73
2022/10/04 00:20:58;;;;;;;0.40;0.40;;;13.30;99.90;;;;;;5092893;28;20426;-75
2022/10/04 00:23:47;;;;;;;0.40;0.40;;;13.30;99.90;;;;;;5091632;28;20889;-74
2022/10/04 00:27:11;;;;;;;0.40;0.40;;;13.30;99.90;;;;;;5093007;28;20454;-74
2022/10/04 00:30:20;;;;;;;0.50;0.50;;;13.30;99.90;;;;;;5093518;28;20521;-73
2022/10/04 00:33:09;;;;;;;0.40;0.40;;;13.30;99.90;;;;;;5093050;28;20425;-73
2022/10/04 00:35:57;;;;;;;0.40;0.40;;;13.30;99.90;;;;;;5091046;28;20443;-73
2022/10/04 00:39:03;;;;;;;0.73;0.73;;;13.40;99.90;;;;;;5091781;28;20418;-75
2022/10/04 00:41:59;;;;;;;0.50;0.50;;;13.30;99.90;;;;;;5093997;28;20432;-74
2022/10/04 00:44:51;;;;;;;0.40;0.40;;;13.30;99.90;;;;;;5094050;28;20802;-72
2022/10/04 00:47:58;;;;;;;0.80;0.80;;;13.20;99.90;;;;;;5093797;28;20453;-74
2022/10/04 00:50:52;;;;;;;0.50;0.50;;;13.20;99.90;;;;;;5093799;28;20861;-75
2022/10/04 00:53:50;;;;;;;0.50;0.50;;;13.30;99.90;;;;;;5097748;28;20532;-73
2022/10/04 00:56:44;;;;;;;0.40;0.40;;;13.20;99.90;;;;;;5096385;28;20445;-72
2022/10/04 00:59:38;;;;;;;8.13;1.60;;;13.20;99.90;;;;;;5097554;28;20411;-73
2022/10/04 01:02:31;;;;;;;2.20;1.67;;;13.20;99.90;;;;;;5096733;28;20418;-73
2022/10/04 01:05:23;;;;;;;0.50;0.50;;;13.20;99.90;;;;;;5096585;28;20430;-72
2022/10/04 01:08:14;;;;;;;2.10;1.90;;;13.30;99.90;;;;;;5097192;28;20840;-74
2022/10/04 01:11:09;;;;;;;0.40;0.40;;;13.20;99.90;;;;;;5096494;28;20556;-73
2022/10/04 01:13:59;;;;;;;0.40;0.40;;;13.20;99.90;;;;;;5095301;28;20428;-73
2022/10/04 01:16:47;;;;;;;0.40;0.40;;;13.30;99.90;;;;;;5075078;28;20457;-73
2022/10/04 01:19:35;;;;;;;0.90;0.83;;;13.10;99.90;;;;;;5079386;28;20437;-75
2022/10/04 01:22:37;;;;;;;0.40;0.40;;;13.10;99.90;;;;;;5081745;28;20424;-73
2022/10/04 01:25:46;;;;;;;2.60;0.63;;;13.10;99.90;;;;;;5075491;28;20415;-73
2022/10/04 01:28:35;;;;;;;1.43;1.30;;;13.10;99.90;;;;;;5074703;28;20833;-72
2022/10/04 01:31:24;;;;;;;0.67;0.67;;;13.10;99.90;;;;;;5075384;28;20427;-73
2022/10/04 01:34:15;;;;;;;0.90;0.90;;;13.00;99.90;;;;;;5075020;28;20426;-74
2022/10/04 01:37:03;;;;;;;1.13;1.00;;;13.00;99.90;;;;;;5074706;28;20894;-73
2022/10/04 01:39:52;;;;;;;0.70;0.70;;;13.00;99.90;;;;;;5074396;28;20433;-75
2022/10/04 01:42:45;;;;;;;0.50;0.50;;;12.90;99.90;;;;;;5075208;28;20786;-73
2022/10/04 01:45:40;;;;;;;0.43;0.43;;;12.90;99.90;;;;;;5073684;28;20813;-73
2022/10/04 01:48:35;;;;;;;0.50;0.50;;;12.80;99.90;;;;;;5074956;28;20470;-75
2022/10/04 01:51:27;;;;;;;0.40;0.40;;;12.90;99.90;;;;;;5073554;28;20790;-73
2022/10/04 01:54:19;;;;;;;0.53;0.53;;;12.90;99.90;;;;;;5073660;28;20434;-73
2022/10/04 01:57:15;;;;;;;0.60;0.53;;;12.80;99.90;;;;;;5074670;28;20466;-72
2022/10/04 02:00:06;;;;;;;0.40;0.40;;;12.80;99.90;;;;;;5073224;28;20927;-75
2022/10/04 02:02:58;;;;;;;0.40;0.40;;;12.70;99.90;;;;;;5073996;28;20574;-73
2022/10/04 02:05:51;;;;;;;0.60;0.60;;;12.70;99.90;;;;;;5075146;28;20419;-75
2022/10/04 02:08:45;;;;;;;1.43;0.80;;;12.70;99.90;;;;;;5074429;28;20463;-74
2022/10/04 02:11:38;;;;;;;0.40;0.40;;;12.70;99.90;;;;;;5072827;28;20419;-74
2022/10/04 02:14:32;;;;;;;0.40;0.40;;;12.80;99.90;;;;;;5074367;28;20830;-74
2022/10/04 02:17:23;;;;;;;0.40;0.40;;;12.80;99.90;;;;;;5074840;28;20485;-74
2022/10/04 02:20:15;;;;;;;1.27;0.77;;;12.80;99.90;;;;;;5072766;28;20416;-73
2022/10/04 02:23:03;;;;;;;0.50;0.50;;;12.80;99.90;;;;;;5073275;28;20523;-74
2022/10/04 02:25:51;;;;;;;0.40;0.40;;;12.80;99.90;;;;;;5073921;28;20431;-73
2022/10/04 02:28:40;;;;;;;0.40;0.40;;;12.80;99.90;;;;;;5094169;28;20426;-73
2022/10/04 02:34:51;;;;;;;1.57;1.13;;;12.90;99.90;;;;;;5011485;28;20430;-74
2022/10/04 02:37:39;;;;;;;0.40;0.40;;;12.80;99.90;;;;;;5012000;28;20949;-73
2022/10/04 02:40:30;;;;;;;0.40;0.40;;;12.80;99.90;;;;;;5083331;28;20542;-73
2022/10/04 02:43:23;;;;;;;0.50;0.50;;;12.80;99.90;;;;;;5094990;28;20524;-74
2022/10/04 02:46:15;;;;;;;0.50;0.50;;;12.70;99.90;;;;;;5092921;28;20466;-72
2022/10/04 02:49:21;;;;;;;0.40;0.40;;;12.80;99.90;;;;;;5094576;28;20535;-72
2022/10/04 02:52:15;;;;;;;0.40;0.40;;;12.70;99.90;;;;;;5094705;28;20422;-74
2022/10/04 02:55:06;;;;;;;0.40;0.40;;;12.70;99.90;;;;;;5092958;28;20425;-74
2022/10/04 02:57:56;;;;;;;0.40;0.40;;;12.70;99.90;;;;;;5092284;28;20442;-73
2022/10/04 03:00:49;;;;;;;0.40;0.40;;;12.70;99.90;;;;;;5093766;28;20426;-72
2022/10/04 03:03:40;;;;;;;0.60;0.60;;;12.60;99.90;;;;;;5093779;28;20430;-74
2022/10/04 03:06:32;;;;;;;0.40;0.40;;;12.50;99.90;;;;;;5092902;28;20511;-72
2022/10/04 03:09:22;;;;;;;0.57;0.57;;;12.60;99.90;;;;;;5094174;28;20469;-73
2022/10/04 03:12:17;;;;;;;0.50;0.50;;;12.40;99.90;;;;;;5092980;28;20425;-75
2022/10/04 03:15:07;;;;;;;2.30;0.80;;;12.50;99.90;;;;;;5091971;28;20433;-72
2022/10/04 03:17:55;;;;;;;1.60;1.50;;;12.40;99.90;;;;;;5093178;28;20473;-73
2022/10/04 03:20:45;;;;;;;0.40;0.40;;;12.50;99.90;;;;;;5093436;28;20567;-74
2022/10/04 03:23:35;;;;;;;0.40;0.40;;;12.50;99.90;;;;;;5092582;28;20450;-72
2022/10/04 03:26:29;;;;;;;0.53;0.53;;;12.40;99.90;;;;;;5093162;28;20468;-72
2022/10/04 03:29:19;;;;;;;0.60;0.60;;;12.40;99.90;;;;;;5073197;28;20459;-72
2022/10/04 03:32:07;;;;;;;0.47;0.47;;;12.40;99.90;;;;;;5072898;28;20430;-72
2022/10/04 03:34:57;;;;;;;0.77;0.77;;;12.40;99.90;;;;;;5073392;28;20508;-73
2022/10/04 03:37:46;;;;;;;0.50;0.50;;;12.40;99.90;;;;;;5072128;28;20981;-73
2022/10/04 03:40:38;;;;;;;0.40;0.40;;;12.60;99.90;;;;;;5071116;28;20435;-74
2022/10/04 03:43:30;;;;;;;0.40;0.40;;;12.40;99.90;;;;;;5072374;28;20419;-74
2022/10/04 03:46:21;;;;;;;0.40;0.40;;;12.30;99.90;;;;;;5072564;28;20508;-75
2022/10/04 03:49:15;;;;;;;0.40;0.40;;;12.30;99.90;;;;;;5071584;28;20802;-73
2022/10/04 03:52:04;;;;;;;6.20;1.63;;;12.20;99.90;;;;;;5071796;28;20457;-74
2022/10/04 03:54:57;;;;;;;0.40;0.40;;;12.20;99.90;;;;;;5072105;28;20519;-73
2022/10/04 03:57:46;;;;;;;0.40;0.40;;;12.30;99.90;;;;;;5072954;28;20447;-72
2022/10/04 04:00:39;;;;;;;0.50;0.50;;;12.30;99.90;;;;;;5072505;28;20820;-73
2022/10/04 04:03:34;;;;;;;0.83;0.83;;;12.30;99.90;;;;;;5071772;28;20431;-72
2022/10/04 04:06:24;;;;;;;0.40;0.40;;;12.30;99.90;;;;;;5073058;28;20451;-73
2022/10/04 04:09:20;;;;;;;0.40;0.40;;;12.40;99.90;;;;;;5070842;28;20446;-74
2022/10/04 04:12:14;;;;;;;0.87;0.87;;;12.50;99.90;;;;;;5071752;28;20419;-73
2022/10/04 04:15:06;;;;;;;0.40;0.40;;;12.50;99.90;;;;;;5072742;28;20450;-73
2022/10/04 04:17:55;;;;;;;0.57;0.57;;;12.50;99.90;;;;;;5071598;28;20485;-72
2022/10/04 04:20:44;;;;;;;1.20;1.13;;;12.40;99.90;;;;;;5073163;28;20434;-73
2022/10/04 04:23:35;;;;;;;0.40;0.40;;;12.40;99.90;;;;;;5071087;28;20451;-74
2022/10/04 04:26:30;;;;;;;0.50;0.50;;;12.50;99.90;;;;;;5073062;28;20463;-74
2022/10/04 04:29:23;;;;;;;0.50;0.50;;;12.30;99.90;;;;;;5093166;28;20564;-73
2022/10/04 04:32:17;;;;;;;0.40;0.40;;;12.20;99.90;;;;;;5094708;28;20426;-75
2022/10/04 04:35:20;;;;;;;0.83;0.67;;;12.10;99.90;;;;;;5092948;28;20519;-73
2022/10/04 04:38:17;;;;;;;0.50;0.50;;;12.00;99.90;;;;;;5094084;28;20457;-73
2022/10/04 04:41:10;;;;;;;0.40;0.40;;;12.00;99.90;;;;;;5092781;28;20476;-74
2022/10/04 04:43:58;;;;;;;0.90;0.90;;;11.90;99.90;;;;;;5093313;28;20949;-74
2022/10/04 04:46:46;;;;;;;0.50;0.50;;;11.90;99.90;;;;;;5094189;28;20447;-73
2022/10/04 04:49:39;;;;;;;0.40;0.40;;;11.90;99.90;;;;;;5094161;28;20453;-72
2022/10/04 04:52:30;;;;;;;0.40;0.40;;;12.00;99.90;;;;;;5094803;28;20428;-74
2022/10/04 04:55:20;;;;;;;0.40;0.40;;;12.00;99.90;;;;;;5094785;28;20426;-73
2022/10/04 04:58:11;;;;;;;0.73;0.50;;;12.10;99.90;;;;;;5093209;28;20773;-75
2022/10/04 05:01:03;;;;;;;0.57;0.57;;;12.20;99.90;;;;;;5094298;28;20429;-71
2022/10/04 05:04:02;;;;;;;0.40;0.40;;;12.20;99.90;;;;;;5093963;28;20430;-73
2022/10/04 05:07:02;;;;;;;0.50;0.50;;;12.30;99.90;;;;;;5093741;28;20438;-73
2022/10/04 05:09:50;;;;;;;0.50;0.50;;;12.30;99.90;;;;;;5090406;28;20427;-73
2022/10/04 05:12:38;;;;;;;0.53;0.47;;;12.40;99.90;;;;;;5092436;28;20419;-73
2022/10/04 05:15:27;;;;;;;0.40;0.40;;;12.30;99.90;;;;;;5093924;28;20799;-73
2022/10/04 05:18:30;;;;;;;0.40;0.40;;;12.40;99.90;;;;;;5093230;28;20511;-74
2022/10/04 05:21:29;;;;;;;0.40;0.40;;;12.40;99.90;;;;;;5092135;28;20429;-73
2022/10/04 05:24:23;;;;;;;0.40;0.40;;;12.50;99.90;;;;;;5091996;28;20427;-75
2022/10/04 05:27:17;;;;;;;0.40;0.40;;;12.50;99.90;;;;;;5085387;28;20455;-75
2022/10/04 05:30:08;;;;;;;0.50;0.50;;;12.40;99.90;;;;;;5070815;28;20613;-74
2022/10/04 05:33:01;;;;;;;0.40;0.40;;;12.50;99.90;;;;;;5071644;28;20423;-73
2022/10/04 05:36:10;;;;;;;1.03;0.93;;;12.60;99.90;;;;;;5072346;28;20810;-73
2022/10/04 05:39:05;;;;;;;0.40;0.40;;;12.60;99.90;;;;;;5072823;28;20518;-75
2022/10/04 05:42:01;;;;;;;0.53;0.53;;;12.60;99.90;;;;;;5080841;28;20509;-73
2022/10/04 05:44:51;;;;;;;0.50;0.50;;;12.60;99.90;;;;;;5090867;28;20541;-73
2022/10/04 05:47:42;;;;;;;0.40;0.40;;;12.60;99.90;;;;;;5094536;28;20450;-73
2022/10/04 05:50:33;;;;;;;0.40;0.40;;;12.60;99.90;;;;;;5093954;28;20837;-73
2022/10/04 05:53:31;;;;;;;12.87;0.87;;;12.70;99.90;;;;;;5094522;28;20518;-74
2022/10/04 05:56:51;;;;;;;0.50;0.50;;;12.70;99.90;;;;;;5094095;28;20446;-74
2022/10/04 05:59:58;;;;;;;0.40;0.40;;;12.70;99.90;;;;;;5094020;28;20513;-74
2022/10/04 06:03:18;;;;;;;0.40;0.40;;;12.70;99.90;;;;;;5094569;28;20446;-72
2022/10/04 06:06:17;;;;;;;0.40;0.40;;;12.70;99.90;;;;;;5094657;28;20446;-74
2022/10/04 06:09:13;;;;;;;0.47;0.47;;;12.80;99.90;;;;;;5095090;28;20422;-71
2022/10/04 06:12:09;;;;;;;0.50;0.50;;;12.90;99.90;;;;;;5094228;28;20464;-74
2022/10/04 06:15:15;;;;;;;0.40;0.40;;;13.00;99.90;;;;;;5097034;28;20441;-74
2022/10/04 06:18:17;;;;;;;0.40;0.40;;;12.90;99.90;;;;;;5130652;22;20568;-68
2022/10/04 06:21:19;;;;;;;0.40;0.40;;;13.00;99.90;;;;;;5111396;28;20433;-68
2022/10/04 06:24:13;;;;;;;0.40;0.40;;;12.90;99.90;;;;;;5111207;28;20426;-70
2022/10/04 06:27:12;;;;;;;5.70;3.80;;;13.10;99.90;;;;;;5104901;28;20454;-69
2022/10/04 06:30:05;;;;;;;6.40;2.37;;;13.20;99.90;;;;;;5110727;28;20493;-69
2022/10/04 06:33:15;;;;;;;0.87;0.50;;;13.20;99.90;;;;;;5111040;28;20445;-69
2022/10/04 06:36:30;;;;;;;0.40;0.40;;;13.20;99.90;;;;;;5110965;28;20434;-70
2022/10/04 06:39:41;;;;;;;0.50;0.50;;;13.20;99.90;;;;;;5098520;28;20792;-70
2022/10/04 06:42:50;;;;;;;0.40;0.40;;;13.20;99.90;;;;;;5096089;28;20953;-70
2022/10/04 06:45:54;;;;;;;0.50;0.50;;;13.30;99.90;;;;;;5094610;28;20444;-69
2022/10/04 06:49:09;;;;;;;0.40;0.40;;;13.30;99.90;;;;;;5095988;28;20425;-69
2022/10/04 06:52:31;;;;;;;0.40;0.40;;;13.30;99.90;;;;;;5095812;28;20498;-69
2022/10/04 06:55:36;;;;;;;1.07;1.00;;;13.30;99.90;;;;;;5095673;28;20423;-70
2022/10/04 06:58:43;;;;;;;0.40;0.40;;;13.60;99.90;;;;;;5095520;28;20418;-70
2022/10/04 07:01:34;;;;;;;0.87;0.80;;;13.50;99.90;;;;;;5094701;28;20424;-70
2022/10/04 07:04:31;;;;;;;0.60;0.60;;;13.60;99.90;;;;;;5094325;28;20844;-69
2022/10/04 07:07:46;;;;;;;0.40;0.40;;;13.60;99.90;;;;;;5094382;28;20830;-70
2022/10/04 07:10:40;;;;;;;0.40;0.40;;;13.60;99.90;;;;;;5094493;28;20418;-70
2022/10/04 07:13:37;;;;;;;0.40;0.40;;;13.60;99.90;;;;;;5095995;28;20428;-70
2022/10/04 07:16:35;;;;;;;1.63;1.17;;;13.70;99.90;;;;;;5113768;28;20453;-69
2022/10/04 07:19:30;;;;;;;0.40;0.40;;;13.70;99.90;;;;;;5112862;28;20426;-69
2022/10/04 07:22:26;;;;;;;0.97;0.67;;;13.70;99.90;;;;;;5096567;28;20433;-70
2022/10/04 07:25:20;;;;;;;1.50;0.67;;;13.80;99.90;;;;;;5095736;28;20426;-71
2022/10/04 07:31:26;;;;;;;0.47;0.47;;;13.80;99.90;;;;;;5074054;28;20516;-70
2022/10/04 07:34:18;;;;;;;0.40;0.40;;;13.90;99.90;;;;;;5073846;28;20399;-70
2022/10/04 07:37:11;;;;;;;2.10;0.90;;;14.00;99.90;;;;;;5073442;28;20454;-70
2022/10/04 07:40:04;;;;;;;0.77;0.73;;;14.10;99.90;;;;;;5074022;28;20796;-71
2022/10/04 07:42:58;;;;;;;0.40;0.40;;;14.10;99.90;;;;;;5080480;28;20419;-70
2022/10/04 07:45:49;;;;;;;1.03;0.80;;;14.20;99.90;;;;;;5071987;28;20419;-70
2022/10/04 07:48:41;;;;;;;1.20;0.70;;;14.20;99.90;;;;;;5074209;28;20438;-70
2022/10/04 07:51:38;;;;;;;0.50;0.50;;;14.10;99.90;;;;;;5073641;28;20471;-70
2022/10/04 07:54:37;;;;;;;4.83;0.87;;;14.10;99.90;;;;;;5074029;28;20841;-70
2022/10/04 07:57:40;;;;;;;0.40;0.40;;;14.10;99.90;;;;;;5074314;28;20452;-71
2022/10/04 08:00:36;;;;;;;0.70;0.70;;;14.20;99.90;;;;;;5073299;28;20423;-71
2022/10/04 08:03:40;;;;;;;0.40;0.40;;;14.40;99.90;;;;;;5074239;28;20529;-70
2022/10/04 08:06:35;;;;;;;0.40;0.40;;;14.60;99.90;;;;;;5072577;28;20554;-71
2022/10/04 08:09:41;;;;;;;0.60;0.50;;;14.90;99.90;;;;;;5073516;28;20426;-70
2022/10/04 08:12:41;;;;;;;0.40;0.40;;;15.20;99.90;;;;;;5073665;28;20462;-71
2022/10/04 08:15:36;;;;;;;0.40;0.40;;;15.20;99.90;;;;;;5073556;28;20428;-70
2022/10/04 08:18:40;;;;;;;0.40;0.40;;;15.10;99.90;;;;;;5073826;28;20419;-70
2022/10/04 08:21:35;;;;;;;0.40;0.40;;;15.10;99.90;;;;;;5072559;28;20206;-70
2022/10/04 08:24:34;;;;;;;0.40;0.40;;;15.20;99.90;;;;;;5074044;28;20551;-70
2022/10/04 08:27:32;;;;;;;0.40;0.40;;;15.10;99.90;;;;;;5082120;28;20572;-71
2022/10/04 08:30:19;;;;;;;0.40;0.40;;;15.10;99.90;;;;;;5094217;28;20414;-70
2022/10/04 08:33:15;;;;;;;0.40;0.40;;;15.10;99.90;;;;;;5092301;28;20485;-71
2022/10/04 08:36:19;;;;;;;0.50;0.50;;;15.10;99.90;;;;;;5092740;28;20196;-70
2022/10/04 08:39:23;;;;;;;0.50;0.50;;;15.30;99.90;;;;;;5093454;28;20227;-71
2022/10/04 08:42:54;;;;;;;0.50;0.50;;;15.20;99.90;;;;;;5092482;28;20218;-69
2022/10/04 08:46:31;;;;;;;0.40;0.40;;;15.30;99.90;;;;;;5094711;28;20213;-71
2022/10/04 08:49:56;;;;;;;0.40;0.40;;;15.30;99.90;;;;;;5092609;28;20225;-69
2022/10/04 08:52:58;;;;;;;0.40;0.40;;;15.30;99.90;;;;;;5093525;28;20215;-70
2022/10/04 08:56:05;;;;;;;0.40;0.40;;;15.40;99.90;;;;;;5092602;28;20922;-70
2022/10/04 08:59:21;;;;;;;0.40;0.40;;;15.60;99.90;;;;;;5093839;28;20196;-71
2022/10/04 09:02:38;;;;;;;0.40;0.40;;;15.50;99.90;;;;;;5093343;28;20755;-70
2022/10/04 09:05:39;;;;;;;0.40;0.40;;;15.70;99.90;;;;;;5093387;28;20695;-70
2022/10/04 09:09:29;;;;;;;0.40;0.40;;;15.80;99.90;;;;;;5092178;28;20426;-70
2022/10/04 09:12:43;;;;;;;0.40;0.40;;;15.80;99.90;;;;;;4992873;28;20223;-71
2022/10/04 09:15:55;;;;;;;0.40;0.40;;;15.90;99.90;;;;;;4994662;28;20226;-70
2022/10/04 09:19:00;;;;;;;0.40;0.40;;;16.10;99.90;;;;;;5098331;28;20286;-71
2022/10/04 09:22:18;;;;;;;0.40;0.40;;;16.20;99.90;;;;;;5097639;28;20200;-70
2022/10/04 09:25:25;;;;;;;0.40;0.40;;;16.10;99.90;;;;;;5096646;28;20215;-71
2022/10/04 09:28:24;;;;;;;0.40;0.40;;;16.00;99.90;;;;;;5096681;28;20801;-71
2022/10/04 09:31:44;;;;;;;0.40;0.40;;;15.90;99.90;;;;;;5097915;28;20715;-71
2022/10/04 09:34:45;;;;;;;0.40;0.40;;;15.90;99.90;;;;;;5094938;28;20287;-70
2022/10/04 09:37:44;;;;;;;0.40;0.40;;;15.70;99.90;;;;;;5095638;28;20224;-70
2022/10/04 09:40:57;;;;;;;0.40;0.40;;;15.80;99.90;;;;;;5097398;28;20248;-71
2022/10/04 09:44:19;;;;;;;0.50;0.50;;;15.80;99.90;;;;;;5097164;28;20961;-72
2022/10/04 09:47:40;;;;;;;1.03;0.93;;;15.90;99.90;;;;;;5097185;28;20219;-70
2022/10/04 09:51:07;;;;;;;0.40;0.40;;;15.90;99.90;;;;;;5093630;28;20279;-70
2022/10/04 09:54:11;;;;;;;0.80;0.80;;;16.00;99.90;;;;;;5094933;28;20219;-70
2022/10/04 09:57:13;;;;;;;0.40;0.40;;;16.40;99.90;;;;;;5095185;28;20220;-70
2022/10/04 10:00:11;;;;;;;0.40;0.40;;;16.40;99.90;;;;;;5096544;28;20432;-71
2022/10/04 10:03:25;;;;;;;0.75;0.50;;;16.50;99.90;;;;;;5096711;28;20192;-70
2022/10/04 10:06:36;;;;;;;0.40;0.40;;;16.50;99.90;;;;;;5095503;28;20200;-71
2022/10/04 10:16:11;;;;;;;0.40;0.40;;;16.70;99.90;;;;;;5094848;28;20203;-71
2022/10/04 10:19:13;;;;;;;0.40;0.40;;;16.90;99.90;;;;;;5094810;28;20219;-71
2022/10/04 10:22:18;;;;;;;0.40;0.40;;;17.00;99.90;;;;;;5096406;28;20282;-71
2022/10/04 10:25:27;;;;;;;0.40;0.40;;;17.10;99.90;;;;;;5095944;28;20581;-71
2022/10/04 10:28:34;;;;;;;0.40;0.40;;;17.10;99.90;;;;;;5077355;28;20217;-71
2022/10/04 10:31:39;;;;;;;0.40;0.40;;;17.20;99.90;;;;;;5074085;28;20571;-71
2022/10/04 10:35:01;;;;;;;0.40;0.40;;;17.40;99.90;;;;;;5074390;28;20227;-71
2022/10/04 10:38:06;;;;;;;0.40;0.40;;;17.70;99.90;;;;;;5075693;28;20224;-70
2022/10/04 10:41:14;;;;;;;0.43;0.40;;;18.00;99.90;;;;;;5075355;28;20207;-71
2022/10/04 10:44:18;;;;;;;0.73;0.73;;;18.30;99.90;;;;;;5076190;28;20280;-71
2022/10/04 10:47:21;;;;;;;1.48;0.50;;;18.10;99.90;;;;;;5078387;28;20272;-71
2022/10/04 10:50:31;;;;;;;1.35;1.35;;;17.90;99.90;;;;;;5078593;28;20201;-70
2022/10/04 10:53:58;;;;;;;0.40;0.40;;;17.70;99.90;;;;;;5078656;28;20680;-70
2022/10/04 10:56:55;;;;;;;0.40;0.40;;;17.80;99.90;;;;;;5079139;28;20303;-73
2022/10/04 11:00:20;;;;;;;0.40;0.40;;;18.00;99.90;;;;;;5079881;28;20192;-70
2022/10/04 11:03:50;;;;;;;0.40;0.40;;;18.20;99.90;;;;;;5077678;28;20290;-70
2022/10/04 11:07:03;;;;;;;0.40;0.40;;;18.30;99.90;;;;;;5078310;28;20248;-70
2022/10/04 11:10:25;;;;;;;0.35;0.35;;;18.50;99.90;;;;;;5085426;28;20201;-70
2022/10/04 11:13:45;;;;;;;0.40;0.40;;;18.80;99.90;;;;;;5080226;28;20219;-70
2022/10/04 11:17:04;;;;;;;0.40;0.40;;;18.90;99.90;;;;;;5062799;28;20242;-70
2022/10/04 11:20:27;;;;;;;0.40;0.40;;;18.50;99.90;;;;;;5076527;28;20212;-70
2022/10/04 11:23:55;;;;;;;0.45;0.45;;;18.50;99.90;;;;;;5077532;28;20193;-70
2022/10/04 11:27:12;;;;;;;0.40;0.40;;;18.50;99.90;;;;;;5078555;28;20703;-71
2022/10/04 11:30:14;;;;;;;0.60;0.57;;;18.30;99.90;;;;;;5096504;28;20632;-71
2022/10/04 11:33:34;;;;;;;0.30;0.30;;;18.40;99.90;;;;;;5094514;28;20223;-70
2022/10/04 11:36:36;;;;;;;0.40;0.40;;;18.60;99.90;;;;;;5092772;28;20216;-71
2022/10/04 11:39:43;;;;;;;0.40;0.40;;;18.70;99.90;;;;;;5094448;28;20850;-71
2022/10/04 11:42:59;;;;;;;0.40;0.40;;;18.80;99.90;;;;;;5075901;28;20235;-71
2022/10/04 11:46:15;;;;;;;0.47;0.47;;;18.90;99.90;;;;;;5072691;28;20197;-71
2022/10/04 11:49:24;;;;;;;0.40;0.40;;;18.90;99.90;;;;;;5072910;28;20209;-70
2022/10/04 11:52:45;;;;;;;0.40;0.40;;;18.70;99.90;;;;;;5073250;28;20215;-71
2022/10/04 11:55:56;;;;;;;0.40;0.40;;;18.50;99.90;;;;;;5048376;28;20219;-71
2022/10/04 11:58:57;;;;;;;0.40;0.40;;;18.50;99.90;;;;;;5073297;28;20208;-71
2022/10/04 12:02:16;;;;;;;0.40;0.40;;;18.60;99.90;;;;;;5072746;28;20584;-71
2022/10/04 12:05:32;;;;;;;0.40;0.40;;;18.50;99.90;;;;;;5073227;28;20693;-71
2022/10/04 12:08:41;;;;;;;0.40;0.40;;;18.50;99.90;;;;;;5073999;28;20224;-71
2022/10/04 12:15:17;;;;;;;0.40;0.40;;;18.40;99.90;;;;;;5073647;28;20354;-71
2022/10/04 12:18:31;;;;;;;0.40;0.40;;;18.40;99.90;;;;;;5109088;23;20318;-78
2022/10/04 12:21:50;;;;;;;0.40;0.40;;;18.60;99.90;;;;;;5092889;28;20594;-76
2022/10/04 12:25:08;;;;;;;0.40;0.40;;;18.90;99.90;;;;;;5091341;28;20299;-76
2022/10/04 12:28:11;;;;;;;0.40;0.40;;;18.90;99.90;;;;;;5091390;28;20227;-75
2022/10/04 12:31:16;;;;;;;0.40;0.40;;;18.80;99.90;;;;;;5091585;28;20210;-75
2022/10/04 12:34:15;;;;;;;0.68;0.68;;;18.90;99.90;;;;;;5091129;28;20219;-74
2022/10/04 12:37:18;;;;;;;7.40;0.77;;;19.10;99.90;;;;;;5092103;28;20215;-74
2022/10/04 12:40:25;;;;;;;0.50;0.50;;;19.00;99.90;;;;;;5090588;28;20215;-73
2022/10/04 12:43:20;;;;;;;0.40;0.40;;;19.10;99.90;;;;;;5092367;28;20202;-75
2022/10/04 12:46:23;;;;;;;0.40;0.40;;;19.30;99.90;;;;;;5092225;28;20214;-75
2022/10/04 12:49:24;;;;;;;0.40;0.40;;;19.60;99.90;;;;;;5095533;28;20230;-78
2022/10/04 12:52:18;;;;;;;0.40;0.40;;;19.90;99.90;;;;;;5096455;28;20202;-76
2022/10/04 12:55:20;;;;;;;0.40;0.40;;;20.20;99.90;;;;;;5099737;28;20227;-76
2022/10/04 12:58:18;;;;;;;0.40;0.40;;;20.50;99.90;;;;;;5095883;28;20611;-75
2022/10/04 13:01:21;;;;;;;0.40;0.40;;;20.40;99.90;;;;;;5096232;28;20200;-76
2022/10/04 13:04:29;;;;;;;0.40;0.40;;;20.50;99.90;;;;;;5099329;28;20195;-74
2022/10/04 13:07:35;;;;;;;0.40;0.40;;;20.60;99.90;;;;;;5100486;28;20309;-77
2022/10/04 13:10:43;;;;;;;0.40;0.40;;;20.70;99.90;;;;;;5096156;28;20202;-73
2022/10/04 13:13:55;;;;;;;0.40;0.40;;;21.00;99.90;;;;;;5101455;28;20215;-75
2022/10/04 13:16:54;;;;;;;0.40;0.40;;;21.00;99.90;;;;;;5100334;28;20310;-75
2022/10/04 13:20:18;;;;;;;3.45;0.90;;;20.80;99.90;;;;;;5096791;28;20196;-74
2022/10/04 13:23:16;;;;;;;0.40;0.40;;;20.60;99.90;;;;;;5095865;28;20210;-74
2022/10/04 13:26:15;;;;;;;0.40;0.40;;;20.30;99.90;;;;;;5096429;28;20591;-76
2022/10/04 13:29:11;;;;;;;0.40;0.40;;;20.10;99.90;;;;;;5056335;28;20193;-73
2022/10/04 13:32:09;;;;;;;0.40;0.40;;;19.90;99.90;;;;;;5054470;28;20205;-73
2022/10/04 13:35:08;;;;;;;0.40;0.40;;;20.10;99.90;;;;;;5055736;28;20274;-76
2022/10/04 13:38:16;;;;;;;0.40;0.40;;;21.10;99.90;;;;;;5055501;28;20221;-77
2022/10/04 13:41:23;;;;;;;0.40;0.40;;;22.10;99.90;;;;;;5055253;28;20212;-74
2022/10/04 13:44:40;;;;;;;0.40;0.40;;;23.00;99.90;;;;;;5055648;28;20205;-78
2022/10/04 13:47:46;;;;;;;0.40;0.40;;;23.20;99.90;;;;;;5055113;28;20729;-75
2022/10/04 13:50:45;;;;;;;1.40;1.38;;;22.80;99.90;;;;;;5055030;28;20237;-74
2022/10/04 13:57:04;;;;;;;0.40;0.40;;;21.70;99.90;;;;;;5054994;28;20256;-76
2022/10/04 14:00:00;;;;;;;0.40;0.40;;;21.10;99.90;;;;;;5054583;28;20584;-76
2022/10/04 14:03:16;;;;;;;0.40;0.40;;;20.70;99.90;;;;;;5059201;28;20198;-74
2022/10/04 14:06:30;;;;;;;0.40;0.40;;;20.40;99.90;;;;;;5056576;28;20190;-74
2022/10/04 14:09:37;;;;;;;0.40;0.40;;;20.40;99.90;;;;;;5054742;28;20335;-75
2022/10/04 14:12:45;;;;;;;0.40;0.40;;;21.40;99.90;;;;;;5054790;28;20284;-76
2022/10/04 14:15:49;;;;;;;0.40;0.40;;;23.00;99.90;;;;;;5054605;28;20258;-74
2022/10/04 14:19:13;;;;;;;0.40;0.40;;;23.90;99.90;;;;;;5053848;28;20235;-74
2022/10/04 14:22:24;;;;;;;0.40;0.40;;;25.00;99.90;;;;;;5052846;28;20228;-74
2022/10/04 14:25:53;;;;;;;0.40;0.40;;;25.30;99.90;;;;;;5053591;28;20201;-73
2022/10/04 14:29:20;;;;;;;0.35;0.30;;;26.40;99.90;;;;;;4972884;28;20704;-73
2022/10/04 14:32:51;;;;;;;0.40;0.40;;;27.40;99.90;;;;;;5052446;28;20212;-72
2022/10/04 14:35:47;;;;;;;0.40;0.40;;;26.50;99.90;;;;;;5052590;28;20225;-75
2022/10/04 14:38:55;;;;;;;0.40;0.40;;;24.90;99.90;;;;;;5054575;28;20304;-75
2022/10/04 14:42:23;;;;;;;0.40;0.40;;;23.80;99.90;;;;;;5054645;28;20212;-73
2022/10/04 14:45:23;;;;;;;0.40;0.40;;;23.10;99.90;;;;;;5053832;28;20242;-74
2022/10/04 14:48:43;;;;;;;0.40;0.40;;;22.80;99.90;;;;;;5053459;28;20247;-76
2022/10/04 14:52:03;;;;;;;0.40;0.40;;;22.80;99.90;;;;;;5053863;28;20326;-75
2022/10/04 14:54:56;;;;;;;0.40;0.40;;;22.60;99.90;;;;;;5054611;28;20263;-75
2022/10/04 14:58:13;;;;;;;0.40;0.40;;;21.90;99.90;;;;;;5061925;28;20221;-77
2022/10/04 15:01:19;;;;;;;0.40;0.40;;;21.20;99.90;;;;;;5054399;28;20755;-75
2022/10/04 15:04:20;;;;;;;0.40;0.40;;;20.70;99.90;;;;;;5053162;28;20342;-75
2022/10/04 15:07:20;;;;;;;0.40;0.40;;;20.30;99.90;;;;;;5052244;28;20720;-75
2022/10/04 15:10:14;;;;;;;0.40;0.40;;;20.00;99.90;;;;;;5051526;28;20210;-76
2022/10/04 15:13:06;;;;;;;0.40;0.40;;;19.70;99.90;;;;;;5052800;28;20200;-74
2022/10/04 15:16:08;;;;;;;0.40;0.40;;;19.50;99.90;;;;;;5052675;28;20766;-80
2022/10/04 15:19:08;;;;;;;0.40;0.40;;;19.30;99.90;;;;;;5052610;28;20197;-77
2022/10/04 15:22:05;;;;;;;0.40;0.40;;;19.10;99.90;;;;;;5051950;28;20575;-79
2022/10/04 15:24:55;;;;;;;0.40;0.40;;;19.00;99.90;;;;;;5052561;28;20251;-73
2022/10/04 15:27:54;;;;;;;0.40;0.40;;;18.90;99.90;;;;;;5077141;28;20594;-75
2022/10/04 15:30:53;;;;;;;0.40;0.40;;;18.60;99.90;;;;;;5091723;28;20204;-75
2022/10/04 15:33:46;;;;;;;0.40;0.40;;;18.50;99.90;;;;;;5093295;28;20672;-75
2022/10/04 15:37:02;;;;;;;0.40;0.40;;;18.20;99.90;;;;;;5092484;28;20224;-76
2022/10/04 15:40:08;;;;;;;0.40;0.40;;;18.20;99.90;;;;;;5091560;28;20192;-76
2022/10/04 15:43:24;;;;;;;0.40;0.40;;;18.10;99.90;;;;;;5092254;28;20282;-76
2022/10/04 15:46:41;;;;;;;0.40;0.40;;;17.90;99.90;;;;;;5091802;28;20218;-76
2022/10/04 15:49:47;;;;;;;0.50;0.50;;;17.80;99.90;;;;;;5091193;28;20257;-76
2022/10/04 15:53:09;;;;;;;0.40;0.40;;;17.70;99.90;;;;;;5092960;28;20195;-76
2022/10/04 15:56:10;;;;;;;0.40;0.40;;;17.50;99.90;;;;;;5091011;28;20208;-77
2022/10/04 15:59:37;;;;;;;0.40;0.40;;;17.50;99.90;;;;;;5091636;28;20196;-76
2022/10/04 16:02:47;;;;;;;0.40;0.40;;;17.40;99.90;;;;;;5091650;28;20675;-75
2022/10/04 16:05:41;;;;;;;0.40;0.40;;;17.30;99.90;;;;;;5091447;28;20552;-76